createdAt,value
2017-12-25T00:01:35.564Z,6.70
2017-12-25T00:04:03.305Z,6.60
2017-12-25T00:06:30.268Z,6.70
2017-12-25T00:08:57.228Z,6.50
2017-12-25T00:11:25.833Z,6.50
2017-12-25T00:13:53.196Z,6.50
2017-12-25T00:16:23.133Z,6.40
2017-12-25T00:18:50.069Z,6.50
2017-12-25T00:21:17.044Z,6.50
2017-12-25T00:23:44.009Z,6.50
2017-12-25T00:26:11.024Z,6.60
2017-12-25T00:28:37.984Z,6.60
2017-12-25T00:31:05.828Z,6.70
2017-12-25T00:33:32.797Z,6.80
2017-12-25T00:36:00.409Z,6.90
2017-12-25T00:38:27.408Z,6.80
2017-12-25T00:40:54.389Z,6.80
2017-12-25T00:43:21.591Z,6.80
2017-12-25T00:45:48.553Z,6.70
2017-12-25T00:48:15.544Z,6.70
2017-12-25T00:50:42.529Z,6.60
2017-12-25T00:53:09.506Z,6.60
2017-12-25T00:55:37.237Z,6.60
2017-12-25T00:58:04.196Z,6.60
2017-12-25T01:00:31.156Z,6.60
2017-12-25T01:02:58.901Z,6.80
2017-12-25T01:05:25.861Z,6.70
2017-12-25T01:08:01.984Z,6.70
2017-12-25T01:10:29.329Z,6.70
2017-12-25T01:12:57.160Z,6.80
2017-12-25T01:15:25.573Z,6.90
2017-12-25T01:17:54.432Z,6.90
2017-12-25T01:20:23.164Z,6.80
2017-12-25T01:22:50.136Z,6.80
2017-12-25T01:25:17.103Z,6.70
2017-12-25T01:27:44.843Z,6.60
2017-12-25T01:30:14.648Z,6.60
2017-12-25T01:32:41.608Z,6.50
2017-12-25T01:35:08.572Z,6.40
2017-12-25T01:37:37.230Z,6.90
2017-12-25T01:40:05.001Z,6.90
2017-12-25T01:42:31.976Z,7.00
2017-12-25T01:44:58.944Z,6.90
2017-12-25T01:47:25.908Z,6.80
2017-12-25T01:49:54.220Z,6.70
2017-12-25T01:52:22.328Z,6.80
2017-12-25T01:54:49.297Z,6.70
2017-12-25T01:57:21.173Z,6.70
2017-12-25T01:59:54.081Z,6.80
2017-12-25T02:02:21.261Z,6.80
2017-12-25T02:04:55.027Z,6.80
2017-12-25T02:07:31.009Z,6.80
2017-12-25T02:09:58.928Z,6.80
2017-12-25T02:12:26.409Z,6.80
2017-12-25T02:14:54.075Z,6.80
2017-12-25T02:17:21.785Z,6.80
2017-12-25T02:19:49.377Z,6.60
2017-12-25T02:22:16.409Z,6.70
2017-12-25T02:24:43.377Z,6.70
2017-12-25T02:27:10.664Z,6.80
2017-12-25T02:29:39.193Z,6.60
2017-12-25T02:32:07.425Z,6.70
2017-12-25T02:34:34.365Z,6.70
2017-12-25T02:37:02.101Z,6.80
2017-12-25T02:39:29.070Z,6.70
2017-12-25T02:41:57.732Z,6.70
2017-12-25T02:44:24.700Z,6.70
2017-12-25T02:46:53.336Z,6.70
2017-12-25T02:49:20.305Z,6.70
2017-12-25T02:51:49.681Z,6.60
2017-12-25T02:54:16.664Z,6.70
2017-12-25T02:56:44.506Z,6.70
2017-12-25T02:59:11.484Z,6.70
2017-12-25T03:01:40.228Z,6.70
2017-12-25T03:04:07.998Z,6.60
2017-12-25T03:06:35.476Z,6.60
2017-12-25T03:09:02.444Z,6.60
2017-12-25T03:11:30.172Z,6.70
2017-12-25T03:13:57.144Z,6.70
2017-12-25T03:16:25.790Z,6.60
2017-12-25T03:18:52.764Z,6.50
2017-12-25T03:21:20.360Z,6.50
2017-12-25T03:23:47.325Z,6.60
2017-12-25T03:26:15.051Z,6.70
2017-12-25T03:28:42.678Z,6.70
2017-12-25T03:31:09.646Z,6.70
2017-12-25T03:33:37.908Z,6.60
2017-12-25T03:36:04.873Z,6.60
2017-12-25T03:38:32.952Z,6.50
2017-12-25T03:40:59.896Z,6.50
2017-12-25T03:43:27.627Z,6.40
2017-12-25T03:45:56.082Z,6.40
2017-12-25T03:48:23.034Z,6.40
2017-12-25T03:50:50.004Z,6.30
2017-12-25T03:55:49.613Z,6.30
2017-12-25T03:58:16.580Z,6.30
2017-12-25T04:00:43.549Z,6.40
2017-12-25T04:03:11.281Z,6.40
2017-12-25T04:05:39.004Z,6.40
2017-12-25T04:08:06.933Z,6.40
2017-12-25T04:10:36.053Z,6.20
2017-12-25T04:13:03.257Z,6.10
2017-12-25T04:15:30.229Z,6.20
2017-12-25T04:17:58.784Z,6.40
2017-12-25T04:20:25.744Z,6.30
2017-12-25T04:22:52.709Z,6.40
2017-12-25T04:25:20.789Z,6.30
2017-12-25T04:27:48.874Z,6.30
2017-12-25T04:30:16.489Z,6.30
2017-12-25T04:32:44.116Z,6.30
2017-12-25T04:35:11.441Z,6.30
2017-12-25T04:37:38.414Z,6.30
2017-12-25T04:40:05.382Z,6.40
2017-12-25T04:42:32.389Z,6.40
2017-12-25T04:44:59.356Z,6.40
2017-12-25T04:47:28.061Z,6.40
2017-12-25T04:49:55.401Z,6.50
2017-12-25T04:52:22.364Z,6.50
2017-12-25T04:54:49.333Z,6.50
2017-12-25T04:57:17.066Z,6.30
2017-12-25T04:59:44.565Z,6.30
2017-12-25T05:02:13.101Z,6.40
2017-12-25T05:04:40.045Z,6.40
2017-12-25T05:07:07.005Z,6.40
2017-12-25T05:09:33.968Z,6.40
2017-12-25T05:12:02.337Z,6.40
2017-12-25T05:14:29.309Z,6.40
2017-12-25T05:16:58.449Z,6.50
2017-12-25T05:19:25.412Z,6.50
2017-12-25T05:21:52.649Z,6.40
2017-12-25T05:24:20.544Z,6.20
2017-12-25T05:26:47.485Z,6.20
2017-12-25T05:29:14.996Z,6.20
2017-12-25T05:31:45.423Z,6.10
2017-12-25T05:34:14.608Z,6.10
2017-12-25T05:36:41.577Z,6.10
2017-12-25T05:39:08.549Z,6.00
2017-12-25T05:41:35.521Z,6.00
2017-12-25T05:44:03.257Z,6.10
2017-12-25T05:46:31.125Z,6.10
2017-12-25T05:48:58.088Z,6.10
2017-12-25T05:51:25.701Z,6.00
2017-12-25T05:53:54.878Z,6.00
2017-12-25T05:56:23.329Z,5.90
2017-12-25T05:58:51.070Z,6.00
2017-12-25T06:01:18.305Z,6.00
2017-12-25T06:03:46.797Z,6.10
2017-12-25T06:06:14.493Z,6.10
2017-12-25T06:08:42.226Z,6.20
2017-12-25T06:11:10.390Z,6.20
2017-12-25T06:13:38.329Z,6.20
2017-12-25T06:16:05.837Z,6.00
2017-12-25T06:18:34.997Z,6.00
2017-12-25T06:21:02.673Z,5.90
2017-12-25T06:23:29.897Z,5.90
2017-12-25T06:25:56.862Z,6.00
2017-12-25T06:28:24.593Z,5.90
2017-12-25T06:30:51.565Z,6.00
2017-12-25T06:33:19.434Z,6.10
2017-12-25T06:35:46.396Z,6.10
2017-12-25T06:38:13.370Z,6.00
2017-12-25T06:40:40.325Z,6.00
2017-12-25T06:43:08.070Z,6.00
2017-12-25T06:45:36.504Z,6.00
2017-12-25T06:48:03.477Z,6.10
2017-12-25T06:50:31.724Z,6.10
2017-12-25T06:52:59.083Z,6.10
2017-12-25T06:55:26.050Z,6.20
2017-12-25T06:57:53.050Z,6.20
2017-12-25T07:00:20.637Z,6.20
2017-12-25T07:02:48.233Z,6.20
2017-12-25T07:05:15.208Z,6.20
2017-12-25T07:07:44.061Z,6.20
2017-12-25T07:10:11.032Z,6.20
2017-12-25T07:12:38.761Z,6.30
2017-12-25T07:15:05.737Z,6.20
2017-12-25T07:17:33.833Z,6.10
2017-12-25T07:20:00.810Z,6.10
2017-12-25T07:22:27.772Z,5.90
2017-12-25T07:24:54.743Z,5.80
2017-12-25T07:27:22.053Z,5.90
2017-12-25T07:29:49.001Z,5.90
2017-12-25T07:32:16.721Z,5.90
2017-12-25T07:34:45.126Z,6.10
2017-12-25T07:37:12.405Z,6.00
2017-12-25T07:39:39.376Z,6.10
2017-12-25T07:42:06.341Z,6.00
2017-12-25T07:44:34.945Z,5.80
2017-12-25T07:47:02.265Z,5.70
2017-12-25T07:49:29.238Z,5.70
2017-12-25T07:51:56.209Z,5.70
2017-12-25T07:54:23.169Z,5.80
2017-12-25T07:56:53.509Z,6.00
2017-12-25T07:59:20.482Z,5.80
2017-12-25T08:01:49.021Z,5.80
2017-12-25T08:04:19.409Z,5.70
2017-12-25T08:06:46.381Z,5.70
2017-12-25T08:09:16.565Z,5.70
2017-12-25T08:11:44.301Z,5.70
2017-12-25T08:14:11.261Z,5.70
2017-12-25T08:16:38.784Z,5.80
2017-12-25T08:19:05.753Z,5.70
2017-12-25T08:21:32.961Z,5.60
2017-12-25T08:23:59.930Z,5.40
2017-12-25T08:26:26.896Z,5.30
2017-12-25T08:28:53.865Z,5.50
2017-12-25T08:31:22.149Z,5.70
2017-12-25T08:33:49.127Z,5.70
2017-12-25T08:36:16.838Z,5.80
2017-12-25T08:38:44.573Z,5.70
2017-12-25T08:41:11.541Z,5.70
2017-12-25T08:43:38.508Z,5.70
2017-12-25T08:46:05.482Z,5.70
2017-12-25T08:48:32.906Z,5.40
2017-12-25T08:51:01.778Z,5.70
2017-12-25T08:53:28.745Z,5.60
2017-12-25T08:55:56.282Z,5.70
2017-12-25T08:58:23.253Z,5.40
2017-12-25T09:00:50.215Z,5.30
2017-12-25T09:03:17.181Z,5.30
2017-12-25T09:05:45.355Z,5.30
2017-12-25T09:08:12.301Z,5.30
2017-12-25T09:10:39.265Z,5.40
2017-12-25T09:13:06.958Z,5.50
2017-12-25T09:15:34.749Z,5.60
2017-12-25T09:18:01.712Z,5.50
2017-12-25T09:20:29.557Z,5.30
2017-12-25T09:22:57.157Z,5.30
2017-12-25T09:25:24.132Z,5.30
2017-12-25T09:27:53.011Z,5.30
2017-12-25T09:30:20.364Z,5.30
2017-12-25T09:32:47.326Z,5.30
2017-12-25T09:35:15.580Z,5.40
2017-12-25T09:37:43.253Z,5.40
2017-12-25T09:40:10.220Z,5.50
2017-12-25T09:42:37.956Z,5.60
2017-12-25T09:45:04.925Z,5.60
2017-12-25T09:47:32.665Z,5.60
2017-12-25T09:49:59.631Z,5.60
2017-12-25T09:52:27.778Z,5.70
2017-12-25T09:54:56.053Z,5.70
2017-12-25T09:57:24.611Z,5.80
2017-12-25T09:59:51.563Z,5.80
2017-12-25T10:02:19.527Z,5.60
2017-12-25T10:04:47.104Z,5.60
2017-12-25T10:07:14.068Z,5.60
2017-12-25T10:09:41.783Z,5.70
2017-12-25T10:12:08.762Z,5.90
2017-12-25T10:14:36.873Z,5.90
2017-12-25T10:17:03.873Z,5.90
2017-12-25T10:19:30.869Z,5.80
2017-12-25T10:21:57.836Z,5.40
2017-12-25T10:24:24.804Z,5.20
2017-12-25T10:26:52.699Z,5.30
2017-12-25T10:29:19.659Z,5.50
2017-12-25T10:31:47.399Z,5.20
2017-12-25T10:34:15.304Z,5.10
2017-12-25T10:36:44.816Z,5.30
2017-12-25T10:39:12.428Z,5.50
2017-12-25T10:41:40.304Z,5.60
2017-12-25T10:44:07.272Z,5.60
2017-12-25T10:46:35.809Z,5.70
2017-12-25T10:49:02.775Z,5.60
2017-12-25T10:51:29.987Z,5.80
2017-12-25T10:53:57.176Z,6.00
2017-12-25T10:56:25.333Z,5.80
2017-12-25T10:58:53.203Z,5.70
2017-12-25T11:01:21.304Z,5.70
2017-12-25T11:03:50.175Z,6.50
2017-12-25T11:06:17.123Z,6.50
2017-12-25T11:08:44.096Z,6.60
2017-12-25T11:11:12.357Z,6.40
2017-12-25T11:13:40.441Z,6.40
2017-12-25T11:16:09.009Z,6.40
2017-12-25T11:18:36.737Z,6.30
2017-12-25T11:21:04.425Z,6.30
2017-12-25T11:23:32.033Z,6.10
2017-12-25T11:25:59.517Z,6.10
2017-12-25T11:28:27.101Z,6.30
2017-12-25T11:30:54.064Z,6.60
2017-12-25T11:33:21.796Z,6.50
2017-12-25T11:35:48.829Z,6.40
2017-12-25T11:38:15.796Z,6.10
2017-12-25T11:40:42.799Z,6.10
2017-12-25T11:43:10.504Z,6.20
2017-12-25T11:45:37.464Z,6.10
2017-12-25T11:48:05.367Z,5.90
2017-12-25T11:50:32.374Z,5.80
2017-12-25T11:53:00.122Z,5.60
2017-12-25T11:55:28.487Z,5.70
2017-12-25T11:57:56.128Z,5.80
2017-12-25T12:00:23.088Z,5.70
2017-12-25T12:02:50.080Z,5.50
2017-12-25T12:05:18.773Z,5.30
2017-12-25T12:07:46.136Z,5.30
2017-12-25T12:10:15.379Z,5.10
2017-12-25T12:12:42.344Z,5.10
2017-12-25T12:15:09.312Z,5.20
2017-12-25T12:17:37.049Z,5.00
2017-12-25T12:20:04.006Z,5.00
2017-12-25T12:22:31.007Z,4.90
2017-12-25T12:24:58.437Z,5.00
2017-12-25T12:27:26.500Z,5.00
2017-12-25T12:29:55.577Z,4.90
2017-12-25T12:32:23.449Z,4.90
2017-12-25T12:34:50.412Z,4.80
2017-12-25T12:37:18.138Z,5.50
2017-12-25T12:39:45.625Z,5.50
2017-12-25T12:42:13.352Z,5.00
2017-12-25T12:44:40.348Z,5.00
2017-12-25T12:47:08.049Z,4.90
2017-12-25T12:49:36.740Z,4.70
2017-12-25T12:52:03.696Z,4.70
2017-12-25T12:54:30.665Z,4.70
2017-12-25T12:56:59.337Z,4.60
2017-12-25T12:59:27.303Z,4.50
2017-12-25T13:01:54.269Z,4.60
2017-12-25T13:04:23.656Z,4.60
2017-12-25T13:06:50.613Z,4.50
2017-12-25T13:09:18.777Z,4.60
2017-12-25T13:11:46.569Z,4.60
2017-12-25T13:14:14.292Z,4.50
2017-12-25T13:16:41.265Z,4.50
2017-12-25T13:19:09.629Z,4.60
2017-12-25T13:21:36.594Z,4.60
2017-12-25T13:24:04.327Z,4.90
2017-12-25T13:26:31.284Z,4.80
2017-12-25T13:28:58.998Z,4.70
2017-12-25T13:31:25.968Z,4.70
2017-12-25T13:33:52.928Z,4.30
2017-12-25T13:36:19.884Z,4.00
2017-12-25T13:38:46.848Z,4.00
2017-12-25T13:41:14.572Z,4.00
2017-12-25T13:43:41.532Z,4.00
2017-12-25T13:46:09.956Z,4.00
2017-12-25T13:48:36.908Z,4.00
2017-12-25T13:51:04.679Z,4.10
2017-12-25T13:53:31.641Z,4.10
2017-12-25T13:55:59.086Z,4.20
2017-12-25T13:58:26.542Z,4.20
2017-12-25T14:00:53.500Z,4.40
2017-12-25T14:03:20.472Z,4.60
2017-12-25T14:05:47.432Z,4.50
2017-12-25T14:08:15.160Z,4.50
2017-12-25T14:10:42.116Z,4.50
2017-12-25T14:13:10.873Z,4.30
2017-12-25T14:15:37.829Z,3.80
2017-12-25T14:18:04.807Z,3.50
2017-12-25T14:20:31.764Z,3.40
2017-12-25T14:22:59.849Z,3.60
2017-12-25T14:25:28.392Z,3.60
2017-12-25T14:27:56.152Z,3.60
2017-12-25T14:30:23.112Z,3.70
2017-12-25T14:32:50.081Z,3.80
2017-12-25T14:35:17.866Z,4.60
2017-12-25T14:37:45.994Z,5.20
2017-12-25T14:40:13.736Z,5.30
2017-12-25T14:42:40.696Z,5.70
2017-12-25T14:45:09.721Z,5.30
2017-12-25T14:47:37.452Z,5.20
2017-12-25T14:50:04.425Z,5.10
2017-12-25T14:52:33.045Z,4.00
2017-12-25T14:55:00.009Z,4.00
2017-12-25T14:57:26.964Z,3.80
2017-12-25T14:59:53.932Z,3.50
2017-12-25T15:02:22.569Z,3.20
2017-12-25T15:04:49.533Z,3.20
2017-12-25T15:07:17.128Z,3.10
2017-12-25T15:09:44.897Z,3.10
2017-12-25T15:12:14.296Z,3.10
2017-12-25T15:14:42.026Z,3.10
2017-12-25T15:17:09.337Z,3.10
2017-12-25T15:19:37.041Z,3.20
2017-12-25T15:22:05.589Z,3.20
2017-12-25T15:24:32.548Z,3.30
2017-12-25T15:26:59.520Z,3.50
2017-12-25T15:29:26.501Z,3.50
2017-12-25T15:31:54.235Z,3.50
2017-12-25T15:34:21.204Z,3.50
2017-12-25T15:36:48.941Z,3.40
2017-12-25T15:39:18.219Z,3.40
2017-12-25T15:41:45.160Z,3.50
2017-12-25T15:44:12.615Z,3.50
2017-12-25T15:46:39.800Z,3.50
2017-12-25T15:49:06.760Z,3.40
2017-12-25T15:51:34.035Z,3.30
2017-12-25T15:54:00.965Z,3.40
2017-12-25T15:56:29.583Z,3.30
2017-12-25T15:58:56.549Z,3.30
2017-12-25T16:01:23.524Z,3.30
2017-12-25T16:03:50.497Z,3.30
2017-12-25T16:06:18.220Z,3.40
2017-12-25T16:08:45.192Z,3.40
2017-12-25T16:11:12.916Z,3.40
2017-12-25T16:13:39.879Z,3.30
2017-12-25T16:16:08.367Z,3.20
2017-12-25T16:18:36.025Z,3.20
2017-12-25T16:21:02.999Z,3.20
2017-12-25T16:23:31.157Z,3.20
2017-12-25T16:25:58.108Z,3.20
2017-12-25T16:28:27.656Z,3.20
2017-12-25T16:30:54.625Z,3.20
2017-12-25T16:33:21.607Z,3.30
2017-12-25T16:35:48.903Z,3.40
2017-12-25T16:38:15.872Z,3.60
2017-12-25T16:40:42.836Z,3.60
2017-12-25T16:43:10.612Z,3.50
2017-12-25T16:45:38.721Z,3.20
2017-12-25T16:48:05.681Z,3.20
2017-12-25T16:50:32.648Z,3.10
2017-12-25T16:52:59.622Z,3.10
2017-12-25T16:55:26.590Z,3.10
2017-12-25T16:57:53.543Z,3.20
2017-12-25T17:00:27.869Z,3.20
2017-12-25T17:02:54.834Z,3.30
2017-12-25T17:05:22.612Z,3.20
2017-12-25T17:07:49.568Z,3.20
2017-12-25T17:10:17.448Z,3.20
2017-12-25T17:12:44.409Z,3.30
2017-12-25T17:15:12.136Z,3.30
2017-12-25T17:17:40.013Z,3.20
2017-12-25T17:20:06.971Z,3.30
2017-12-25T17:22:34.705Z,3.30
2017-12-25T17:25:02.968Z,3.20
2017-12-25T17:27:30.173Z,3.30
2017-12-25T17:29:57.888Z,3.20
2017-12-25T17:32:24.855Z,3.20
2017-12-25T17:34:52.580Z,3.10
2017-12-25T17:37:20.344Z,3.00
2017-12-25T17:39:47.791Z,3.10
2017-12-25T17:42:14.756Z,3.10
2017-12-25T17:44:41.717Z,3.20
2017-12-25T17:47:08.691Z,3.30
2017-12-25T17:49:36.967Z,3.30
2017-12-25T17:52:04.501Z,3.30
2017-12-25T17:54:31.734Z,3.20
2017-12-25T17:56:59.361Z,3.10
2017-12-25T17:59:26.956Z,3.10
2017-12-25T18:01:53.920Z,3.00
2017-12-25T18:04:20.884Z,3.00
2017-12-25T18:06:48.577Z,2.90
2017-12-25T18:09:18.369Z,2.90
2017-12-25T18:11:46.101Z,2.90
2017-12-25T18:14:14.921Z,2.90
2017-12-25T18:16:42.653Z,3.00
2017-12-25T18:19:10.686Z,3.00
2017-12-25T18:21:37.640Z,2.90
2017-12-25T18:24:04.600Z,2.80
2017-12-25T18:26:32.479Z,2.80
2017-12-25T18:28:59.444Z,2.90
2017-12-25T18:31:26.402Z,2.80
2017-12-25T18:33:55.348Z,2.80
2017-12-25T18:36:22.303Z,2.80
2017-12-25T18:38:49.272Z,2.90
2017-12-25T18:41:17.624Z,3.00
2017-12-25T18:43:44.640Z,3.00
2017-12-25T18:46:11.600Z,3.00
2017-12-25T18:48:39.300Z,3.30
2017-12-25T18:51:06.260Z,3.40
2017-12-25T18:53:34.503Z,3.10
2017-12-25T18:56:01.468Z,3.10
2017-12-25T18:58:29.229Z,3.00
2017-12-25T19:00:56.744Z,2.90
2017-12-25T19:03:23.696Z,2.70
2017-12-25T19:05:50.666Z,2.60
2017-12-25T19:08:18.551Z,2.50
2017-12-25T19:10:45.516Z,2.50
2017-12-25T19:13:13.262Z,2.40
2017-12-25T19:15:40.221Z,2.40
2017-12-25T19:18:08.688Z,2.60
2017-12-25T19:20:35.701Z,2.60
2017-12-25T19:23:03.178Z,2.60
2017-12-25T19:25:30.141Z,2.50
2017-12-25T19:27:58.647Z,2.30
2017-12-25T19:30:26.372Z,2.30
2017-12-25T19:32:53.687Z,2.30
2017-12-25T19:35:20.632Z,2.20
2017-12-25T19:37:49.053Z,2.10
2017-12-25T19:40:17.039Z,2.00
2017-12-25T19:42:43.982Z,2.00
2017-12-25T19:45:13.365Z,2.00
2017-12-25T19:47:40.329Z,2.00
2017-12-25T19:50:08.052Z,2.10
2017-12-25T19:52:35.230Z,2.00
2017-12-25T19:55:02.184Z,2.10
2017-12-25T19:57:30.502Z,2.00
2017-12-25T19:59:57.980Z,2.00
2017-12-25T20:02:24.913Z,2.00
2017-12-25T20:04:51.881Z,1.90
2017-12-25T20:07:18.844Z,2.00
2017-12-25T20:09:48.017Z,2.00
2017-12-25T20:12:15.600Z,1.90
2017-12-25T20:14:42.572Z,2.00
2017-12-25T20:17:11.108Z,2.00
2017-12-25T20:19:39.079Z,2.00
2017-12-25T20:22:06.414Z,2.00
2017-12-25T20:24:33.745Z,2.00
2017-12-25T20:27:00.667Z,2.00
2017-12-25T20:29:30.635Z,2.20
2017-12-25T20:31:57.591Z,2.20
2017-12-25T20:34:28.139Z,2.10
2017-12-25T20:36:55.113Z,2.20
2017-12-25T20:39:22.829Z,2.20
2017-12-25T20:41:49.798Z,2.20
2017-12-25T20:44:17.516Z,2.20
2017-12-25T20:46:45.052Z,2.20
2017-12-25T20:49:13.747Z,2.20
2017-12-25T20:51:40.730Z,2.30
2017-12-25T20:54:09.087Z,2.00
2017-12-25T20:56:36.558Z,2.00
2017-12-25T20:59:03.496Z,2.00
2017-12-25T21:01:30.465Z,2.00
2017-12-25T21:03:58.349Z,2.20
2017-12-25T21:06:25.909Z,2.10
2017-12-25T21:08:52.887Z,2.20
2017-12-25T21:11:20.884Z,2.20
2017-12-25T21:13:48.400Z,2.30
2017-12-25T21:16:16.131Z,2.30
2017-12-25T21:18:43.638Z,2.30
2017-12-25T21:21:11.252Z,2.30
2017-12-25T21:23:39.728Z,2.10
2017-12-25T21:26:06.685Z,2.10
2017-12-25T21:28:35.552Z,2.10
2017-12-25T21:31:03.650Z,2.10
2017-12-25T21:33:30.616Z,2.00
2017-12-25T21:35:58.354Z,2.10
2017-12-25T21:38:26.229Z,2.10
2017-12-25T21:40:53.955Z,2.20
2017-12-25T21:43:21.432Z,2.20
2017-12-25T21:45:48.396Z,2.30
2017-12-25T21:48:16.141Z,2.40
2017-12-25T21:50:43.772Z,2.40
2017-12-25T21:53:11.548Z,2.30
2017-12-25T21:55:40.074Z,2.40
2017-12-25T21:58:07.809Z,2.10
2017-12-25T22:00:34.769Z,2.10
2017-12-25T22:03:03.026Z,2.10
2017-12-25T22:05:31.763Z,2.10
2017-12-25T22:07:59.471Z,1.90
2017-12-25T22:10:26.443Z,1.80
2017-12-25T22:12:55.660Z,1.60
2017-12-25T22:15:24.785Z,1.50
2017-12-25T22:17:51.740Z,1.50
2017-12-25T22:20:18.713Z,1.60
2017-12-25T22:22:46.445Z,1.50
2017-12-25T22:25:14.072Z,1.50
2017-12-25T22:27:41.808Z,1.40
2017-12-25T22:30:09.697Z,1.30
2017-12-25T22:32:38.435Z,1.40
2017-12-25T22:35:06.324Z,1.30
2017-12-25T22:37:33.289Z,1.20
2017-12-25T22:40:02.184Z,1.20
2017-12-25T22:42:29.921Z,1.30
2017-12-25T22:44:56.884Z,1.30
2017-12-25T22:47:24.468Z,1.20
2017-12-25T22:49:51.431Z,1.20
2017-12-25T22:52:19.025Z,1.10
2017-12-25T22:54:45.999Z,1.20
2017-12-25T22:57:12.957Z,1.10
2017-12-25T22:59:41.189Z,1.30
2017-12-25T23:02:08.152Z,1.30
2017-12-25T23:04:35.880Z,1.40
2017-12-25T23:07:03.632Z,1.30
2017-12-25T23:09:30.584Z,1.40
2017-12-25T23:12:00.895Z,1.30
2017-12-25T23:14:28.601Z,1.10
2017-12-25T23:16:55.572Z,1.10
2017-12-25T23:19:23.304Z,1.10
2017-12-25T23:21:50.264Z,1.00
2017-12-25T23:24:17.904Z,1.20
2017-12-25T23:26:45.233Z,1.20
2017-12-25T23:29:12.196Z,1.20
2017-12-25T23:31:39.153Z,1.40
2017-12-25T23:34:07.005Z,1.80
2017-12-25T23:36:35.136Z,2.10
2017-12-25T23:39:02.871Z,1.70
2017-12-25T23:41:30.617Z,1.70
2017-12-25T23:43:57.861Z,1.80
2017-12-25T23:46:24.816Z,1.50
2017-12-25T23:48:51.789Z,1.40
2017-12-25T23:51:19.507Z,1.60
2017-12-25T23:53:46.480Z,1.60
2017-12-25T23:56:13.503Z,1.60
2017-12-25T23:58:41.116Z,1.90
